Time;durP1;ratioP1;P1;durP2;ratioP2;P2;SDS_P1;SDS_P2;PMS_P1;PMS_P2;Temp;Humidity;BMP_temperature;BMP_pressure;BME280_temperature;BME280_humidity;BME280_pressure;Samples;Min_cycle;Max_cycle;Signal;HPM_P1;HPM_P2
2022/03/17 00:01:23;;;;;;;54.45;27.23;;;4.40;99.90;;;;;;5074707;28;20016;-72
2022/03/17 00:03:49;;;;;;;57.90;26.10;;;4.40;99.90;;;;;;5074547;28;20158;-72
2022/03/17 00:06:15;;;;;;;58.67;27.25;;;4.30;99.90;;;;;;5074411;28;20112;-72
2022/03/17 00:08:41;;;;;;;69.22;30.65;;;4.30;99.90;;;;;;5075233;28;20039;-72
2022/03/17 00:11:06;;;;;;;66.75;29.23;;;4.30;99.90;;;;;;5074516;28;20025;-72
2022/03/17 00:13:32;;;;;;;62.95;29.30;;;4.40;99.90;;;;;;5074753;28;20023;-72
2022/03/17 00:15:58;;;;;;;64.60;29.95;;;4.30;99.90;;;;;;5074324;28;20029;-72
2022/03/17 00:18:23;;;;;;;55.83;28.10;;;4.30;99.90;;;;;;5074601;28;20085;-72
2022/03/17 00:20:49;;;;;;;55.38;27.60;;;4.30;99.90;;;;;;5074521;28;20043;-72
2022/03/17 00:23:15;;;;;;;65.85;30.67;;;4.20;99.90;;;;;;5074246;28;20027;-72
2022/03/17 00:25:41;;;;;;;56.58;28.90;;;4.30;99.90;;;;;;5074007;28;20037;-72
2022/03/17 00:28:06;;;;;;;64.57;29.88;;;4.30;99.90;;;;;;5074512;28;20032;-72
2022/03/17 00:30:32;;;;;;;59.67;29.80;;;4.20;99.90;;;;;;5073385;28;20481;-72
2022/03/17 00:32:57;;;;;;;69.68;31.58;;;4.30;99.90;;;;;;5075014;28;20043;-72
2022/03/17 00:35:35;;;;;;;62.80;30.00;;;4.20;99.90;;;;;;5074050;28;20025;-72
2022/03/17 00:38:08;;;;;;;63.42;30.17;;;4.30;99.90;;;;;;5074475;28;20032;-72
2022/03/17 00:40:38;;;;;;;58.95;29.98;;;4.30;99.90;;;;;;5074359;28;20058;-72
2022/03/17 00:43:08;;;;;;;63.67;29.65;;;4.30;99.90;;;;;;5074330;28;20025;-72
2022/03/17 00:45:35;;;;;;;75.88;32.88;;;4.30;99.90;;;;;;5073962;28;20099;-72
2022/03/17 00:48:01;;;;;;;66.88;29.35;;;4.30;99.90;;;;;;5074012;28;20557;-72
2022/03/17 00:50:26;;;;;;;65.40;31.52;;;4.30;99.90;;;;;;5074650;28;20056;-72
2022/03/17 00:52:52;;;;;;;73.10;31.77;;;4.30;99.90;;;;;;5074131;28;20510;-72
2022/03/17 00:55:19;;;;;;;60.33;29.50;;;4.20;99.90;;;;;;5074082;28;20086;-72
2022/03/17 00:57:45;;;;;;;65.57;30.30;;;4.20;99.90;;;;;;5073900;28;20024;-72
2022/03/17 01:00:15;;;;;;;62.58;29.63;;;4.20;99.90;;;;;;5073996;28;20435;-72
2022/03/17 01:02:42;;;;;;;62.40;29.65;;;4.20;99.90;;;;;;5073985;28;20590;-72
2022/03/17 01:05:09;;;;;;;60.17;28.15;;;4.20;99.90;;;;;;5073732;28;20421;-72
2022/03/17 01:07:37;;;;;;;66.57;30.45;;;4.20;99.90;;;;;;5076617;28;20016;-72
2022/03/17 01:10:04;;;;;;;67.10;31.80;;;4.20;99.90;;;;;;5077988;28;20021;-72
2022/03/17 01:12:30;;;;;;;65.30;31.20;;;4.20;99.90;;;;;;5077890;28;20542;-72
2022/03/17 01:14:56;;;;;;;63.00;29.63;;;4.10;99.90;;;;;;5077824;28;20036;-72
2022/03/17 01:17:21;;;;;;;72.88;30.38;;;4.20;99.90;;;;;;5077908;28;20039;-72
2022/03/17 01:19:47;;;;;;;80.20;31.88;;;4.20;99.90;;;;;;5077856;28;20047;-72
2022/03/17 01:22:12;;;;;;;66.80;28.70;;;4.20;99.90;;;;;;5078034;28;20025;-72
2022/03/17 01:24:38;;;;;;;62.78;31.40;;;4.20;99.90;;;;;;5077342;28;20111;-72
2022/03/17 01:27:03;;;;;;;72.97;31.58;;;4.10;99.90;;;;;;5077912;28;20481;-72
2022/03/17 01:29:29;;;;;;;68.78;31.92;;;4.20;99.90;;;;;;5077676;28;20025;-72
2022/03/17 01:31:55;;;;;;;64.75;33.10;;;4.10;99.90;;;;;;5077897;28;20025;-72
2022/03/17 01:34:20;;;;;;;69.03;31.42;;;4.10;99.90;;;;;;5078068;28;20117;-72
2022/03/17 01:36:46;;;;;;;68.90;34.08;;;4.10;99.90;;;;;;5077397;28;20028;-72
2022/03/17 01:39:11;;;;;;;68.13;32.78;;;4.10;99.90;;;;;;5077404;28;20417;-72
2022/03/17 01:41:39;;;;;;;81.90;33.67;;;4.20;99.90;;;;;;5077618;28;20036;-72
2022/03/17 01:44:06;;;;;;;71.93;32.72;;;4.20;99.90;;;;;;5077486;28;20067;-72
2022/03/17 01:47:26;;;;;;;70.10;32.60;;;4.20;99.90;;;;;;5077235;28;20031;-72
2022/03/17 01:49:17;;;;;;;67.35;33.75;;;4.30;99.90;;;;;;5077083;28;20539;-72
2022/03/17 01:51:45;;;;;;;66.70;32.45;;;4.40;99.90;;;;;;5075951;28;20055;-72
2022/03/17 01:54:11;;;;;;;68.30;32.83;;;4.40;99.90;;;;;;5077500;28;20495;-72
2022/03/17 01:56:37;;;;;;;75.15;34.58;;;4.40;99.90;;;;;;5077116;28;20115;-72
2022/03/17 01:59:03;;;;;;;66.60;32.55;;;4.40;99.90;;;;;;5077098;28;20500;-72
2022/03/17 02:01:28;;;;;;;75.63;34.38;;;4.40;99.90;;;;;;5077422;28;20133;-72
2022/03/17 02:03:56;;;;;;;68.85;33.65;;;4.50;99.90;;;;;;5077295;28;20025;-72
2022/03/17 02:06:23;;;;;;;71.72;33.30;;;4.50;99.90;;;;;;5076833;28;20024;-72
2022/03/17 02:08:49;;;;;;;65.88;33.38;;;4.50;99.90;;;;;;5077265;28;20016;-72
2022/03/17 02:13:59;;;;;;;74.65;33.15;;;4.60;99.90;;;;;;5077274;28;20113;-72
2022/03/17 02:16:27;;;;;;;65.53;32.90;;;4.60;99.90;;;;;;5076886;28;20464;-72
2022/03/17 02:18:52;;;;;;;81.68;36.45;;;4.60;99.90;;;;;;5075212;28;20031;-72
2022/03/17 02:21:18;;;;;;;60.63;29.83;;;4.60;99.90;;;;;;5076865;28;20028;-72
2022/03/17 02:26:30;;;;;;;68.22;32.75;;;4.70;99.90;;;;;;5076466;28;20396;-72
2022/03/17 02:28:56;;;;;;;75.43;34.83;;;4.70;99.90;;;;;;5076484;28;20028;-72
2022/03/17 02:31:23;;;;;;;78.00;35.63;;;4.70;99.90;;;;;;5076668;28;20021;-72
2022/03/17 02:33:50;;;;;;;66.20;33.13;;;4.80;99.90;;;;;;5076420;28;20511;-72
2022/03/17 02:36:15;;;;;;;69.75;35.75;;;4.80;99.90;;;;;;5074956;28;20056;-72
2022/03/17 02:38:43;;;;;;;73.53;34.17;;;4.80;99.90;;;;;;5076597;28;20063;-72
2022/03/17 02:41:09;;;;;;;85.43;34.03;;;4.80;99.90;;;;;;5076310;28;20051;-72
2022/03/17 02:43:34;;;;;;;66.88;34.28;;;4.90;99.90;;;;;;5076437;28;20052;-72
2022/03/17 02:46:00;;;;;;;70.63;34.65;;;4.90;99.90;;;;;;5076076;28;20016;-72
2022/03/17 02:48:25;;;;;;;74.85;34.65;;;5.00;99.90;;;;;;5076429;28;20032;-72
2022/03/17 02:50:51;;;;;;;75.88;35.42;;;4.90;99.90;;;;;;5076333;28;20035;-72
2022/03/17 02:53:17;;;;;;;69.70;35.47;;;5.00;99.90;;;;;;5076660;28;20104;-72
2022/03/17 02:55:44;;;;;;;86.10;37.92;;;5.00;99.90;;;;;;5076244;28;20020;-72
2022/03/17 02:58:10;;;;;;;71.57;33.92;;;5.00;99.90;;;;;;5075915;28;20074;-72
2022/03/17 03:00:36;;;;;;;73.60;36.00;;;5.10;99.90;;;;;;5075915;28;20021;-72
2022/03/17 03:03:03;;;;;;;76.70;37.92;;;5.00;99.90;;;;;;5075814;28;20047;-72
2022/03/17 03:05:29;;;;;;;70.18;33.70;;;5.10;99.90;;;;;;5075676;28;20031;-72
2022/03/17 03:07:54;;;;;;;69.95;36.33;;;5.10;99.90;;;;;;5075688;28;20024;-72
2022/03/17 03:10:20;;;;;;;81.50;37.53;;;5.10;99.90;;;;;;5075862;28;20384;-72
2022/03/17 03:12:46;;;;;;;73.57;36.03;;;5.20;99.90;;;;;;5075652;28;20028;-72
2022/03/17 03:15:12;;;;;;;73.68;35.90;;;5.10;99.90;;;;;;5075762;28;20031;-72
2022/03/17 03:17:38;;;;;;;70.63;37.17;;;5.20;99.90;;;;;;5075484;28;20030;-72
2022/03/17 03:20:05;;;;;;;79.32;36.80;;;5.10;99.90;;;;;;5075389;28;20384;-72
2022/03/17 03:22:39;;;;;;;71.20;35.72;;;5.20;99.90;;;;;;5075698;28;20036;-72
2022/03/17 03:25:06;;;;;;;71.30;36.45;;;5.20;99.90;;;;;;5075274;28;20055;-72
2022/03/17 03:27:31;;;;;;;73.03;36.55;;;5.30;99.90;;;;;;5075684;28;20032;-71
2022/03/17 03:29:58;;;;;;;74.15;36.88;;;5.30;99.90;;;;;;5074901;28;20024;-71
2022/03/17 03:32:25;;;;;;;69.55;36.33;;;5.30;99.90;;;;;;5075452;28;20411;-71
2022/03/17 03:34:51;;;;;;;75.00;35.05;;;5.40;99.90;;;;;;5075172;28;20025;-71
2022/03/17 03:37:23;;;;;;;76.07;39.15;;;5.50;99.90;;;;;;5075537;28;20456;-71
2022/03/17 03:39:50;;;;;;;75.20;39.42;;;5.50;99.90;;;;;;5075074;28;20028;-71
2022/03/17 03:42:15;;;;;;;76.60;35.88;;;5.50;99.90;;;;;;5075256;28;20029;-71
2022/03/17 03:44:41;;;;;;;73.80;38.78;;;5.60;99.90;;;;;;5074862;28;20029;-71
2022/03/17 03:47:07;;;;;;;72.93;37.30;;;5.60;99.90;;;;;;5074907;28;20028;-71
2022/03/17 03:49:34;;;;;;;73.43;37.05;;;5.60;99.90;;;;;;5075209;28;20020;-71
2022/03/17 03:51:59;;;;;;;70.53;36.35;;;5.70;99.90;;;;;;5074822;28;20025;-71
2022/03/17 03:54:25;;;;;;;81.00;40.05;;;5.70;99.90;;;;;;5074743;28;20489;-71
2022/03/17 03:56:53;;;;;;;76.70;37.53;;;5.70;99.90;;;;;;5074695;28;20025;-71
2022/03/17 03:59:21;;;;;;;77.97;39.60;;;5.70;99.90;;;;;;5074745;28;20059;-71
2022/03/17 04:01:49;;;;;;;75.47;38.50;;;5.70;99.90;;;;;;5075312;28;20024;-71
2022/03/17 04:04:18;;;;;;;71.63;37.90;;;5.70;99.90;;;;;;5074567;28;20033;-71
2022/03/17 04:06:46;;;;;;;85.15;42.17;;;5.70;99.90;;;;;;5075483;28;20374;-71
2022/03/17 04:09:13;;;;;;;74.82;38.88;;;5.80;99.90;;;;;;5074490;28;20417;-71
2022/03/17 04:11:39;;;;;;;77.65;40.75;;;5.80;99.90;;;;;;5074617;28;20031;-71
2022/03/17 04:14:06;;;;;;;76.32;41.05;;;5.80;99.90;;;;;;5074501;28;20024;-71
2022/03/17 04:16:32;;;;;;;72.63;39.13;;;5.80;99.90;;;;;;5074370;28;20396;-72
2022/03/17 04:18:58;;;;;;;81.03;40.55;;;5.90;99.90;;;;;;5074493;28;20385;-71
2022/03/17 04:21:23;;;;;;;86.93;41.70;;;5.90;99.90;;;;;;5074344;28;20020;-71
2022/03/17 04:23:50;;;;;;;77.70;39.33;;;5.90;99.90;;;;;;5074607;28;20111;-71
2022/03/17 04:26:15;;;;;;;75.28;41.08;;;5.90;99.90;;;;;;5074635;28;20029;-71
2022/03/17 04:28:41;;;;;;;74.50;38.67;;;6.00;99.90;;;;;;5074627;28;20082;-71
2022/03/17 04:31:07;;;;;;;76.40;39.75;;;5.90;99.90;;;;;;5074376;28;20024;-71
2022/03/17 04:33:32;;;;;;;75.63;40.67;;;6.00;99.90;;;;;;5074172;28;20024;-71
2022/03/17 04:35:58;;;;;;;80.65;41.28;;;6.00;99.90;;;;;;5074117;28;20064;-71
2022/03/17 04:38:23;;;;;;;70.28;39.00;;;6.00;99.90;;;;;;5074483;28;20078;-71
2022/03/17 04:40:49;;;;;;;78.65;38.92;;;6.00;99.90;;;;;;5074007;28;20040;-71
2022/03/17 04:43:18;;;;;;;73.88;38.92;;;6.10;99.90;;;;;;5073603;28;20027;-71
2022/03/17 04:45:45;;;;;;;79.90;39.63;;;6.10;99.90;;;;;;5074127;28;20481;-71
2022/03/17 04:48:11;;;;;;;83.00;41.17;;;6.20;99.90;;;;;;5074101;28;20461;-71
2022/03/17 04:50:37;;;;;;;77.38;41.85;;;6.20;99.90;;;;;;5074145;28;20103;-71
2022/03/17 04:55:47;;;;;;;80.22;41.65;;;6.20;99.90;;;;;;5074337;28;20039;-71
2022/03/17 04:58:13;;;;;;;79.80;41.35;;;6.20;99.90;;;;;;5073953;28;20029;-71
2022/03/17 05:00:39;;;;;;;77.55;41.05;;;6.20;99.90;;;;;;5073920;28;20035;-71
2022/03/17 05:03:05;;;;;;;73.10;38.95;;;6.30;99.90;;;;;;5074185;28;20024;-71
2022/03/17 05:05:30;;;;;;;81.25;42.70;;;6.20;99.90;;;;;;5073708;28;20078;-71
2022/03/17 05:07:57;;;;;;;82.45;41.40;;;6.30;99.90;;;;;;5074212;28;20051;-71
2022/03/17 05:10:23;;;;;;;78.03;40.97;;;6.30;99.90;;;;;;5073858;28;20099;-71
2022/03/17 05:12:49;;;;;;;79.22;43.35;;;6.30;99.90;;;;;;5073771;28;20108;-71
2022/03/17 05:15:16;;;;;;;77.10;42.08;;;6.30;99.90;;;;;;5073746;28;20052;-71
2022/03/17 05:17:42;;;;;;;88.95;42.08;;;6.30;99.90;;;;;;5073687;28;20066;-71
2022/03/17 05:20:10;;;;;;;84.25;43.60;;;6.40;99.90;;;;;;5074049;28;20032;-71
2022/03/17 05:22:36;;;;;;;80.65;41.00;;;6.40;99.90;;;;;;5073876;28;20531;-71
2022/03/17 05:25:04;;;;;;;85.18;45.42;;;6.40;99.90;;;;;;5073426;28;20056;-71
2022/03/17 05:27:30;;;;;;;78.80;42.95;;;6.40;99.90;;;;;;5073952;28;20508;-71
2022/03/17 05:29:56;;;;;;;88.43;43.50;;;6.40;99.90;;;;;;5073675;28;20071;-71
2022/03/17 05:32:22;;;;;;;75.03;42.15;;;6.40;99.90;;;;;;5073615;28;20065;-71
2022/03/17 05:34:47;;;;;;;78.45;44.40;;;6.40;99.90;;;;;;5072238;28;20029;-71
2022/03/17 05:37:13;;;;;;;85.95;42.80;;;6.50;99.90;;;;;;5074292;28;20021;-71
2022/03/17 05:39:40;;;;;;;89.32;43.58;;;6.50;99.90;;;;;;5073506;28;20028;-71
2022/03/17 05:42:06;;;;;;;80.78;44.67;;;6.50;99.90;;;;;;5073597;28;20025;-71
2022/03/17 05:44:32;;;;;;;81.88;44.72;;;6.50;99.90;;;;;;5073718;28;20128;-71
2022/03/17 05:46:58;;;;;;;84.00;43.88;;;6.50;99.90;;;;;;5073390;28;20028;-71
2022/03/17 05:49:24;;;;;;;86.00;45.13;;;6.50;99.90;;;;;;5074010;28;20028;-71
2022/03/17 05:51:49;;;;;;;84.93;44.33;;;6.40;99.90;;;;;;5073492;28;20024;-71
2022/03/17 05:54:15;;;;;;;83.07;45.17;;;6.50;99.90;;;;;;5076575;28;20024;-71
2022/03/17 05:56:40;;;;;;;86.70;44.40;;;6.40;99.90;;;;;;5075728;28;20115;-71
2022/03/17 05:59:06;;;;;;;84.18;45.40;;;6.40;99.90;;;;;;5077780;28;20024;-71
2022/03/17 06:01:31;;;;;;;86.30;44.95;;;6.50;99.90;;;;;;5077021;28;20047;-71
2022/03/17 06:03:57;;;;;;;81.78;45.25;;;6.50;99.90;;;;;;5076929;28;20381;-71
2022/03/17 06:06:22;;;;;;;86.45;44.35;;;6.50;99.90;;;;;;5076881;28;20358;-71
2022/03/17 06:08:48;;;;;;;92.95;47.53;;;6.50;99.90;;;;;;5076822;28;20078;-71
2022/03/17 06:11:14;;;;;;;79.95;42.80;;;6.50;99.90;;;;;;5076970;28;20023;-71
2022/03/17 06:13:39;;;;;;;80.95;43.80;;;6.60;99.90;;;;;;5077009;28;20021;-71
2022/03/17 06:16:06;;;;;;;84.68;44.45;;;6.60;99.90;;;;;;5076842;28;20021;-71
2022/03/17 06:18:31;;;;;;;80.05;42.85;;;6.60;99.90;;;;;;5076734;28;20048;-71
2022/03/17 06:20:57;;;;;;;83.15;44.53;;;6.60;99.90;;;;;;5077126;28;20086;-71
2022/03/17 06:23:22;;;;;;;92.63;46.42;;;6.60;99.90;;;;;;5077153;28;20082;-71
2022/03/17 06:25:49;;;;;;;80.47;44.72;;;6.60;99.90;;;;;;5076493;28;20032;-71
2022/03/17 06:28:15;;;;;;;82.30;44.10;;;6.60;99.90;;;;;;5076700;28;20039;-71
2022/03/17 06:30:41;;;;;;;82.78;46.17;;;6.70;99.90;;;;;;5076507;28;20019;-71
2022/03/17 06:33:07;;;;;;;79.50;44.38;;;6.70;99.90;;;;;;5076490;28;20021;-71
2022/03/17 06:35:33;;;;;;;76.10;43.50;;;6.70;99.90;;;;;;5076592;28;20043;-71
2022/03/17 06:38:00;;;;;;;79.80;44.25;;;6.80;99.90;;;;;;5076283;28;20027;-71
2022/03/17 06:40:27;;;;;;;85.07;47.67;;;6.80;99.90;;;;;;5076961;28;20445;-71
2022/03/17 06:42:53;;;;;;;81.38;44.58;;;6.80;99.90;;;;;;5075019;28;20031;-71
2022/03/17 06:45:19;;;;;;;87.80;47.47;;;6.90;99.90;;;;;;5076201;28;20507;-71
2022/03/17 06:47:46;;;;;;;79.22;44.15;;;6.90;99.90;;;;;;5076475;28;20077;-71
2022/03/17 06:50:13;;;;;;;84.78;45.05;;;6.90;99.90;;;;;;5076235;28;20047;-71
2022/03/17 06:52:39;;;;;;;82.93;45.17;;;6.90;99.90;;;;;;5076005;28;20214;-71
2022/03/17 06:55:05;;;;;;;81.72;45.50;;;7.00;99.90;;;;;;5074781;28;20109;-71
2022/03/17 06:57:31;;;;;;;81.97;46.45;;;7.00;99.90;;;;;;5074682;28;20079;-71
2022/03/17 06:59:57;;;;;;;87.97;47.70;;;7.00;99.90;;;;;;5076176;28;20029;-71
2022/03/17 07:02:22;;;;;;;94.72;50.60;;;7.00;99.90;;;;;;5075871;28;20442;-71
2022/03/17 07:04:48;;;;;;;85.95;47.28;;;7.00;99.90;;;;;;5074831;28;20112;-71
2022/03/17 07:07:14;;;;;;;84.97;46.40;;;7.00;99.90;;;;;;5075752;28;20024;-71
2022/03/17 07:09:43;;;;;;;79.43;44.88;;;7.10;99.90;;;;;;5075800;28;20055;-71
2022/03/17 07:12:12;;;;;;;87.53;48.80;;;7.10;99.90;;;;;;5075694;28;20052;-71
2022/03/17 07:14:39;;;;;;;86.30;46.53;;;7.10;99.90;;;;;;5075712;28;20028;-71
2022/03/17 07:17:05;;;;;;;87.20;49.80;;;7.10;99.90;;;;;;5075526;28;20081;-71
2022/03/17 07:19:31;;;;;;;88.82;48.55;;;7.10;99.90;;;;;;5075494;28;20020;-71
2022/03/17 07:21:56;;;;;;;87.50;47.55;;;7.00;99.90;;;;;;5075493;28;20104;-71
2022/03/17 07:24:22;;;;;;;98.82;50.75;;;7.10;99.90;;;;;;5075594;28;20472;-71
2022/03/17 07:26:47;;;;;;;99.15;50.63;;;7.00;99.90;;;;;;5075211;28;20063;-71
2022/03/17 07:29:13;;;;;;;86.60;50.15;;;7.00;99.90;;;;;;5075616;28;20028;-71
2022/03/17 07:31:39;;;;;;;98.10;49.60;;;7.00;99.90;;;;;;5075274;28;20219;-71
2022/03/17 07:34:05;;;;;;;97.00;52.00;;;7.00;99.90;;;;;;5075181;28;20111;-71
2022/03/17 07:36:31;;;;;;;95.05;51.35;;;6.90;99.90;;;;;;5075173;28;20016;-71
2022/03/17 07:38:58;;;;;;;97.97;53.40;;;6.90;99.90;;;;;;5075254;28;20024;-71
2022/03/17 07:41:24;;;;;;;97.75;51.17;;;6.90;99.90;;;;;;5075192;28;20025;-71
2022/03/17 07:43:50;;;;;;;99.05;52.00;;;6.90;99.90;;;;;;5075003;28;20025;-71
2022/03/17 07:46:16;;;;;;;100.63;57.10;;;6.90;99.90;;;;;;5074907;28;20027;-71
2022/03/17 07:48:43;;;;;;;93.28;52.85;;;6.90;99.90;;;;;;5074836;28;20388;-71
2022/03/17 07:51:08;;;;;;;96.40;52.97;;;6.90;99.90;;;;;;5075039;28;20380;-71
2022/03/17 07:53:34;;;;;;;102.38;54.65;;;6.80;99.90;;;;;;5074981;28;20024;-71
2022/03/17 07:56:02;;;;;;;98.10;53.95;;;6.80;99.90;;;;;;5074836;28;20032;-71
2022/03/17 07:58:28;;;;;;;112.00;57.15;;;6.80;99.90;;;;;;5075281;28;20072;-71
2022/03/17 08:00:55;;;;;;;113.30;57.83;;;6.80;99.90;;;;;;5074696;28;20033;-72
2022/03/17 08:03:22;;;;;;;112.50;56.17;;;6.70;99.90;;;;;;5074669;28;20074;-71
2022/03/17 08:05:48;;;;;;;121.00;63.03;;;6.70;99.90;;;;;;5074569;28;20025;-71
2022/03/17 08:08:15;;;;;;;118.10;60.55;;;6.70;99.90;;;;;;5075027;28;20033;-71
2022/03/17 08:10:41;;;;;;;119.75;59.63;;;6.60;99.90;;;;;;5074590;28;20024;-71
2022/03/17 08:13:09;;;;;;;117.40;59.47;;;6.60;99.90;;;;;;5074526;28;20064;-72
2022/03/17 08:15:36;;;;;;;119.85;63.78;;;6.60;99.90;;;;;;5074432;28;20102;-72
2022/03/17 08:18:02;;;;;;;118.38;62.80;;;6.60;99.90;;;;;;5074412;28;20024;-72
2022/03/17 08:20:28;;;;;;;126.50;60.88;;;6.60;99.90;;;;;;5074682;28;20025;-72
2022/03/17 08:22:55;;;;;;;121.80;64.30;;;6.60;99.90;;;;;;5074617;28;20099;-72
2022/03/17 08:25:20;;;;;;;125.80;63.67;;;6.60;99.90;;;;;;5073998;28;20048;-72
2022/03/17 08:27:46;;;;;;;129.63;65.30;;;6.60;99.90;;;;;;5074334;28;20496;-72
2022/03/17 08:30:12;;;;;;;133.90;66.00;;;6.60;99.90;;;;;;5074251;28;20084;-71
2022/03/17 08:32:40;;;;;;;131.30;66.13;;;6.60;99.90;;;;;;5074149;28;20100;-72
2022/03/17 08:35:06;;;;;;;127.00;66.35;;;6.50;99.90;;;;;;5074190;28;20086;-72
2022/03/17 08:37:38;;;;;;;130.48;66.85;;;6.60;99.90;;;;;;5074563;28;20473;-71
2022/03/17 08:40:05;;;;;;;135.45;67.95;;;6.60;99.90;;;;;;5074415;28;20028;-72
2022/03/17 08:42:30;;;;;;;131.98;67.78;;;6.60;99.90;;;;;;5074208;28;20028;-72
2022/03/17 08:44:56;;;;;;;132.82;66.53;;;6.60;99.90;;;;;;5073930;28;20032;-73
2022/03/17 08:50:06;;;;;;;133.82;69.28;;;6.60;99.90;;;;;;5074199;28;20103;-72
2022/03/17 08:52:32;;;;;;;136.68;68.85;;;6.70;99.90;;;;;;5073986;28;20070;-73
2022/03/17 08:54:58;;;;;;;129.80;67.30;;;6.70;99.90;;;;;;5073894;28;20025;-73
2022/03/17 08:57:23;;;;;;;136.10;68.22;;;6.70;99.90;;;;;;5074274;28;20025;-72
2022/03/17 08:59:49;;;;;;;136.98;67.60;;;6.70;99.90;;;;;;5074548;28;20503;-72
2022/03/17 09:02:15;;;;;;;137.45;68.00;;;6.70;99.90;;;;;;5073950;28;20027;-72
2022/03/17 09:04:41;;;;;;;136.75;66.65;;;6.70;99.90;;;;;;5073753;28;20480;-72
2022/03/17 09:07:07;;;;;;;129.68;64.90;;;6.70;99.90;;;;;;5074184;28;20024;-72
2022/03/17 09:09:35;;;;;;;140.35;71.72;;;6.80;99.90;;;;;;5075409;28;20487;-72
2022/03/17 09:12:06;;;;;;;143.95;70.85;;;6.70;99.90;;;;;;5074822;28;20043;-73
2022/03/17 09:14:32;;;;;;;147.70;73.55;;;6.70;99.90;;;;;;5074159;28;20487;-73
2022/03/17 09:16:58;;;;;;;140.80;70.90;;;6.70;99.90;;;;;;5073748;28;20017;-73
2022/03/17 09:19:23;;;;;;;134.90;69.18;;;6.70;99.90;;;;;;5073843;28;20476;-73
2022/03/17 09:21:49;;;;;;;143.02;71.47;;;6.80;99.90;;;;;;5073660;28;20505;-73
2022/03/17 09:24:14;;;;;;;139.27;70.65;;;6.80;99.90;;;;;;5073976;28;20461;-73
2022/03/17 09:26:40;;;;;;;144.27;70.63;;;6.80;99.90;;;;;;5074048;28;20036;-73
2022/03/17 09:29:06;;;;;;;142.75;71.38;;;6.80;99.90;;;;;;5076884;28;20032;-73
2022/03/17 09:31:32;;;;;;;143.00;72.35;;;6.80;99.90;;;;;;5077613;28;20069;-73
2022/03/17 09:33:58;;;;;;;145.98;70.97;;;6.80;99.90;;;;;;5077554;28;20043;-73
2022/03/17 09:36:24;;;;;;;141.70;70.10;;;6.80;99.90;;;;;;5077427;28;20036;-73
2022/03/17 09:41:35;;;;;;;;;;;6.80;99.90;;;;;;5078375;28;20047;-73
2022/03/17 09:44:02;;;;;;;138.60;64.25;;;6.80;99.90;;;;;;5077218;28;19908;-73
2022/03/17 09:46:29;;;;;;;129.60;68.47;;;6.80;99.90;;;;;;5077539;28;20020;-73
2022/03/17 09:48:55;;;;;;;621.20;81.32;;;6.80;99.90;;;;;;5077575;28;20028;-73
2022/03/17 09:51:24;;;;;;;124.70;66.60;;;6.80;99.90;;;;;;5077251;28;20021;-72
2022/03/17 09:53:53;;;;;;;124.60;61.72;;;6.80;99.90;;;;;;5077394;28;20056;-72
2022/03/17 09:56:25;;;;;;;122.55;61.20;;;6.90;99.90;;;;;;5077032;28;20388;-72
2022/03/17 09:58:55;;;;;;;106.10;52.40;;;6.90;99.90;;;;;;5077567;28;20023;-72
2022/03/17 10:01:22;;;;;;;121.18;42.97;;;6.90;99.90;;;;;;5077661;28;20013;-73
2022/03/17 10:03:48;;;;;;;81.13;33.10;;;6.90;99.90;;;;;;5077205;28;20025;-73
2022/03/17 10:06:18;;;;;;;65.70;28.75;;;6.80;99.90;;;;;;5077605;28;20042;-73
2022/03/17 10:08:45;;;;;;;74.38;23.77;;;6.80;99.90;;;;;;5076933;28;20138;-73
2022/03/17 10:11:16;;;;;;;71.72;21.05;;;6.80;99.90;;;;;;5077020;28;20016;-73
2022/03/17 10:13:46;;;;;;;63.58;19.33;;;6.80;99.90;;;;;;5076790;28;20429;-73
2022/03/17 10:16:17;;;;;;;72.45;22.20;;;6.80;99.90;;;;;;5076693;28;20107;-73
2022/03/17 10:18:45;;;;;;;67.53;17.33;;;6.90;99.90;;;;;;5076690;28;20450;-73
2022/03/17 10:21:26;;;;;;;58.00;13.88;;;6.80;99.90;;;;;;5076962;28;20362;-73
2022/03/17 10:24:03;;;;;;;59.70;14.20;;;6.90;99.90;;;;;;5076692;28;20073;-73
2022/03/17 10:26:50;;;;;;;75.20;13.32;;;6.90;99.90;;;;;;5076456;28;20033;-73
2022/03/17 10:29:17;;;;;;;56.25;12.63;;;6.90;99.90;;;;;;5076601;28;20017;-73
2022/03/17 10:32:07;;;;;;;92.78;11.38;;;6.90;99.90;;;;;;5075295;28;20104;-73
2022/03/17 10:34:51;;;;;;;60.33;11.73;;;6.90;99.90;;;;;;5076587;28;20016;-73
2022/03/17 10:37:18;;;;;;;;;;;7.10;99.90;;;;;;5075664;28;20031;-73
2022/03/17 10:39:51;;;;;;;61.65;8.43;;;7.10;99.90;;;;;;5075287;28;20284;-73
2022/03/17 10:42:25;;;;;;;61.10;10.15;;;7.20;99.90;;;;;;5076715;28;20035;-73
2022/03/17 10:44:55;;;;;;;70.63;9.10;;;7.30;99.90;;;;;;5076101;28;20032;-73
2022/03/17 10:47:29;;;;;;;47.35;8.05;;;7.30;99.90;;;;;;5076365;28;20031;-73
2022/03/17 10:50:13;;;;;;;;;;;7.40;99.90;;;;;;5076618;28;20020;-73
2022/03/17 10:52:55;;;;;;;66.78;7.57;;;7.50;99.90;;;;;;5076163;28;19904;-73
2022/03/17 10:55:32;;;;;;;63.90;8.25;;;7.40;99.90;;;;;;5076413;28;20031;-73
2022/03/17 10:58:19;;;;;;;46.53;7.97;;;7.50;99.90;;;;;;5076027;28;20059;-73
2022/03/17 11:00:52;;;;;;;41.53;6.45;;;7.40;99.90;;;;;;5076268;28;20105;-73
2022/03/17 11:03:22;;;;;;;53.45;7.10;;;7.40;99.90;;;;;;5076276;28;20024;-74
2022/03/17 11:05:51;;;;;;;41.78;6.13;;;7.30;99.90;;;;;;5075860;28;20077;-73
2022/03/17 11:08:18;;;;;;;64.30;7.50;;;7.20;99.90;;;;;;5075853;28;20066;-73
2022/03/17 11:10:44;;;;;;;53.97;5.70;;;7.20;99.90;;;;;;5075984;28;20473;-73
2022/03/17 11:13:11;;;;;;;43.65;4.88;;;7.20;99.90;;;;;;5075705;28;20033;-73
2022/03/17 11:15:43;;;;;;;56.42;6.57;;;7.20;99.90;;;;;;5075783;28;20468;-73
2022/03/17 11:18:21;;;;;;;42.20;6.75;;;7.10;99.90;;;;;;5076261;28;20107;-73
2022/03/17 11:20:47;;;;;;;44.58;6.40;;;7.10;99.90;;;;;;5075689;28;20055;-73
2022/03/17 11:23:19;;;;;;;44.78;8.48;;;7.10;99.90;;;;;;5075785;28;20060;-73
2022/03/17 11:25:53;;;;;;;53.80;8.55;;;7.20;99.90;;;;;;5075425;28;20020;-72
2022/03/17 11:28:32;;;;;;;47.10;7.55;;;7.20;99.90;;;;;;5075761;28;20044;-73
2022/03/17 11:31:03;;;;;;;43.35;5.60;;;7.20;99.90;;;;;;5075935;28;20027;-72
2022/03/17 11:33:32;;;;;;;54.28;6.63;;;7.20;99.90;;;;;;5074328;28;20484;-73
2022/03/17 11:36:00;;;;;;;49.13;6.07;;;7.20;99.90;;;;;;5075348;28;20028;-73
2022/03/17 11:38:32;;;;;;;57.15;8.20;;;7.30;99.90;;;;;;5075413;28;20036;-73
2022/03/17 11:41:12;;;;;;;48.58;4.90;;;7.20;99.90;;;;;;5075793;28;20036;-72
2022/03/17 11:43:44;;;;;;;50.40;5.97;;;7.20;99.90;;;;;;5075511;28;20054;-73
2022/03/17 11:46:18;;;;;;;38.17;7.35;;;7.20;99.90;;;;;;5075071;28;20051;-73
2022/03/17 11:48:45;;;;;;;42.92;7.25;;;7.20;99.90;;;;;;5075151;28;20028;-73
2022/03/17 11:51:13;;;;;;;64.05;7.22;;;7.20;99.90;;;;;;5074867;28;20025;-73
2022/03/17 11:54:02;;;;;;;52.13;8.13;;;7.20;99.90;;;;;;5075310;28;20020;-73
2022/03/17 11:56:38;;;;;;;45.22;5.82;;;7.20;99.90;;;;;;5074896;28;20534;-73
2022/03/17 11:59:07;;;;;;;47.30;7.25;;;7.20;99.90;;;;;;5075120;28;20477;-73
2022/03/17 12:01:46;;;;;;;39.22;5.72;;;7.20;99.90;;;;;;5074839;28;20020;-73
2022/03/17 12:04:28;;;;;;;49.70;6.10;;;7.20;99.90;;;;;;5075278;28;20044;-72
2022/03/17 12:07:06;;;;;;;73.57;8.57;;;7.20;99.90;;;;;;5074635;28;20031;-72
2022/03/17 12:09:35;;;;;;;56.85;6.28;;;7.10;99.90;;;;;;5074594;28;20049;-73
2022/03/17 12:12:01;;;;;;;38.30;5.53;;;7.10;99.90;;;;;;5074957;28;20024;-73
2022/03/17 12:14:28;;;;;;;41.38;5.50;;;7.10;99.90;;;;;;5074825;28;20103;-73
2022/03/17 12:16:55;;;;;;;59.03;6.82;;;7.20;99.90;;;;;;5074547;28;20029;-73
2022/03/17 12:19:33;;;;;;;48.33;8.65;;;7.30;99.90;;;;;;5074782;28;20020;-73
2022/03/17 12:22:01;;;;;;;53.10;6.30;;;7.30;99.90;;;;;;5074435;28;20493;-73
2022/03/17 12:24:51;;;;;;;60.78;6.15;;;7.30;99.90;;;;;;5074268;28;20082;-73
2022/03/17 12:27:23;;;;;;;59.83;6.60;;;7.30;99.90;;;;;;5074921;28;20107;-73
2022/03/17 12:30:12;;;;;;;66.43;7.22;;;7.20;99.90;;;;;;5074650;28;20030;-72
2022/03/17 12:32:47;;;;;;;48.58;8.35;;;7.30;99.90;;;;;;5074426;28;20488;-73
2022/03/17 12:35:12;;;;;;;60.42;7.63;;;7.20;99.90;;;;;;5074420;28;20055;-73
2022/03/17 12:37:40;;;;;;;56.60;7.93;;;7.20;99.90;;;;;;5074432;28;20469;-72
2022/03/17 12:40:08;;;;;;;61.70;7.10;;;7.10;99.90;;;;;;5074837;28;20029;-72
2022/03/17 12:42:41;;;;;;;55.17;7.40;;;7.00;99.90;;;;;;5074201;28;20378;-73
2022/03/17 12:45:08;;;;;;;;;;;7.10;99.90;;;;;;5074591;28;20107;-73
2022/03/17 12:47:36;;;;;;;68.57;8.10;;;7.10;99.90;;;;;;5073025;28;19961;-73
2022/03/17 12:50:06;;;;;;;42.17;6.90;;;7.20;99.90;;;;;;5074443;28;20109;-72
2022/03/17 12:52:33;;;;;;;54.88;7.85;;;7.10;99.90;;;;;;5074229;28;20020;-73
2022/03/17 12:55:06;;;;;;;67.35;7.38;;;7.20;99.90;;;;;;5074165;28;20548;-73